Grant Co International Airport
KMWH : now visible

Airfield :











YOU CAN JOIN US ON...

 
LOGIN :

Register | Disclaimer

   EN    FR    IT 

 









Legend :    VFR   Marginal VFR   IFR   Intensive IFR   Very Intensive IFR
Visi :
Ceiling :
>= 8 km
>= 3000ft
5 to 8 km
1000 to 3000 ft
1500m to 5 km
500 to 1000 ft
800 to 1500m
200 to 500 ft
< 800m
< 200 ft
Symbols :   Thunderstorms  Fog  Heavy snow  Heavy precipitations  Wind > 20 kt






- Airport Elevation : 1189 ft


KMWH - Grant Co International

CURRENT METAR :
  • 100552Z AUTO 18007KT 10SM CLR 13/M01 A2991 RMK AO2 SLP128 T01331011 10239 20128 58003

EXPIRED METARs :
  • 100452Z AUTO 15005KT 10SM CLR 14/M01 A2992 RMK AO2 SLP132 T01391011
  • 100352Z AUTO 17006KT 10SM CLR 17/M02 A2992 RMK AO2 SLP132 T01721017

TAF KMWH
Valid from the 10 at 06:00 until the 11 at 06:00 UTC


100520Z 1006/1106 17006KT P6SM SKC
FM102200 26011G17KT P6SM FEW100 BKN250



MET'MAP, your aeronautical weather chart ! - Copyright ORBIFLY December 2007 - Disclaimer

ORBIFLY MET'MAP TEAM :

Programming & Development : Alexandra Zaïnal
Concept & original design : Baudouin d'Aumeries
Assistance for programming : Marc-Olivier Méhu
Technical & hardware support : Manuel Goepfert

Contact : metmap@orbifly.com




SOURCES & CREDITS :

   NOAA       Earth
Advisory